sensor_id;sensor_type;location;lat;lon;timestamp;temperature;humidity
56308;DHT22;42217;50.422;7.210;2023-04-30T00:00:11;8.10;99.90
56308;DHT22;42217;50.422;7.210;2023-04-30T00:02:37;8.10;99.90
56308;DHT22;42217;50.422;7.210;2023-04-30T00:05:03;8.00;99.90
56308;DHT22;42217;50.422;7.210;2023-04-30T00:07:29;7.90;99.90
56308;DHT22;42217;50.422;7.210;2023-04-30T00:09:55;7.80;99.90
56308;DHT22;42217;50.422;7.210;2023-04-30T00:12:21;7.90;99.90
56308;DHT22;42217;50.422;7.210;2023-04-30T00:14:46;7.80;99.90
56308;DHT22;42217;50.422;7.210;2023-04-30T00:17:12;7.70;99.90
56308;DHT22;42217;50.422;7.210;2023-04-30T00:19:38;7.60;99.90
56308;DHT22;42217;50.422;7.210;2023-04-30T00:22:03;7.50;99.90
56308;DHT22;42217;50.422;7.210;2023-04-30T00:24:30;7.40;99.90
56308;DHT22;42217;50.422;7.210;2023-04-30T00:26:56;7.40;99.90
56308;DHT22;42217;50.422;7.210;2023-04-30T00:29:21;7.40;99.90
56308;DHT22;42217;50.422;7.210;2023-04-30T00:31:47;7.40;99.90
56308;DHT22;42217;50.422;7.210;2023-04-30T00:34:13;7.50;99.90
56308;DHT22;42217;50.422;7.210;2023-04-30T00:36:39;7.60;99.90
56308;DHT22;42217;50.422;7.210;2023-04-30T00:39:05;8.00;99.90
56308;DHT22;42217;50.422;7.210;2023-04-30T00:41:33;8.00;99.90
56308;DHT22;42217;50.422;7.210;2023-04-30T00:43:59;7.90;99.90
56308;DHT22;42217;50.422;7.210;2023-04-30T00:46:26;7.90;99.90
56308;DHT22;42217;50.422;7.210;2023-04-30T00:48:52;7.90;99.90
56308;DHT22;42217;50.422;7.210;2023-04-30T00:51:18;7.80;99.90
56308;DHT22;42217;50.422;7.210;2023-04-30T00:53:44;7.90;99.90
56308;DHT22;42217;50.422;7.210;2023-04-30T00:56:12;7.80;99.90
56308;DHT22;42217;50.422;7.210;2023-04-30T00:58:40;7.80;99.90
56308;DHT22;42217;50.422;7.210;2023-04-30T01:01:06;7.70;99.90
56308;DHT22;42217;50.422;7.210;2023-04-30T01:03:32;7.70;99.90
56308;DHT22;42217;50.422;7.210;2023-04-30T01:06:00;7.70;99.90
56308;DHT22;42217;50.422;7.210;2023-04-30T01:08:26;7.70;99.90
56308;DHT22;42217;50.422;7.210;2023-04-30T01:13:39;7.70;99.90
56308;DHT22;42217;50.422;7.210;2023-04-30T01:16:16;7.70;99.90
56308;DHT22;42217;50.422;7.210;2023-04-30T01:18:48;7.80;99.90
56308;DHT22;42217;50.422;7.210;2023-04-30T01:21:16;7.80;99.90
56308;DHT22;42217;50.422;7.210;2023-04-30T01:24:01;7.80;99.90
56308;DHT22;42217;50.422;7.210;2023-04-30T01:27:01;7.80;99.90
56308;DHT22;42217;50.422;7.210;2023-04-30T01:29:31;7.80;99.90
56308;DHT22;42217;50.422;7.210;2023-04-30T01:31:59;7.80;99.90
56308;DHT22;42217;50.422;7.210;2023-04-30T01:34:26;7.80;99.90
56308;DHT22;42217;50.422;7.210;2023-04-30T01:37:14;8.00;99.90
56308;DHT22;42217;50.422;7.210;2023-04-30T01:42:41;7.90;99.90
56308;DHT22;42217;50.422;7.210;2023-04-30T01:48:24;7.90;99.90
56308;DHT22;42217;50.422;7.210;2023-04-30T01:50:43;7.90;99.90
56308;DHT22;42217;50.422;7.210;2023-04-30T01:53:17;7.90;99.90
56308;DHT22;42217;50.422;7.210;2023-04-30T01:56:00;7.90;99.90
56308;DHT22;42217;50.422;7.210;2023-04-30T01:58:26;7.90;99.90
56308;DHT22;42217;50.422;7.210;2023-04-30T02:00:53;7.90;99.90
56308;DHT22;42217;50.422;7.210;2023-04-30T02:03:20;7.80;99.90
56308;DHT22;42217;50.422;7.210;2023-04-30T02:05:46;7.90;99.90
56308;DHT22;42217;50.422;7.210;2023-04-30T02:08:12;7.90;99.90
56308;DHT22;42217;50.422;7.210;2023-04-30T02:10:38;7.90;99.90
56308;DHT22;42217;50.422;7.210;2023-04-30T02:13:03;7.90;99.90
56308;DHT22;42217;50.422;7.210;2023-04-30T02:15:29;7.90;99.90
56308;DHT22;42217;50.422;7.210;2023-04-30T02:17:55;7.90;99.90
56308;DHT22;42217;50.422;7.210;2023-04-30T02:20:20;8.10;99.90
56308;DHT22;42217;50.422;7.210;2023-04-30T02:22:46;8.20;99.90
56308;DHT22;42217;50.422;7.210;2023-04-30T02:25:12;8.30;99.90
56308;DHT22;42217;50.422;7.210;2023-04-30T02:27:39;8.30;99.90
56308;DHT22;42217;50.422;7.210;2023-04-30T02:30:05;8.20;99.90
56308;DHT22;42217;50.422;7.210;2023-04-30T02:32:31;8.20;99.90
56308;DHT22;42217;50.422;7.210;2023-04-30T02:34:57;8.10;99.90
56308;DHT22;42217;50.422;7.210;2023-04-30T02:37:23;8.10;99.90
56308;DHT22;42217;50.422;7.210;2023-04-30T02:39:49;8.00;99.90
56308;DHT22;42217;50.422;7.210;2023-04-30T02:42:15;8.00;99.90
56308;DHT22;42217;50.422;7.210;2023-04-30T02:44:41;8.00;99.90
56308;DHT22;42217;50.422;7.210;2023-04-30T02:47:07;8.10;99.90
56308;DHT22;42217;50.422;7.210;2023-04-30T02:49:32;8.10;99.90
56308;DHT22;42217;50.422;7.210;2023-04-30T02:51:58;8.00;99.90
56308;DHT22;42217;50.422;7.210;2023-04-30T02:54:24;8.00;99.90
56308;DHT22;42217;50.422;7.210;2023-04-30T02:56:49;8.00;99.90
56308;DHT22;42217;50.422;7.210;2023-04-30T02:59:15;8.00;99.90
56308;DHT22;42217;50.422;7.210;2023-04-30T03:01:41;7.90;99.90
56308;DHT22;42217;50.422;7.210;2023-04-30T03:04:06;8.10;99.90
56308;DHT22;42217;50.422;7.210;2023-04-30T03:06:32;8.20;99.90
56308;DHT22;42217;50.422;7.210;2023-04-30T03:08:59;8.00;99.90
56308;DHT22;42217;50.422;7.210;2023-04-30T03:11:25;7.70;99.90
56308;DHT22;42217;50.422;7.210;2023-04-30T03:13:51;7.60;99.90
56308;DHT22;42217;50.422;7.210;2023-04-30T03:16:18;7.30;99.90
56308;DHT22;42217;50.422;7.210;2023-04-30T03:18:44;7.10;99.90
56308;DHT22;42217;50.422;7.210;2023-04-30T03:21:10;6.80;99.90
56308;DHT22;42217;50.422;7.210;2023-04-30T03:23:36;6.60;99.90
56308;DHT22;42217;50.422;7.210;2023-04-30T03:26:02;6.30;99.90
56308;DHT22;42217;50.422;7.210;2023-04-30T03:28:27;6.30;99.90
56308;DHT22;42217;50.422;7.210;2023-04-30T03:30:53;6.40;99.90
56308;DHT22;42217;50.422;7.210;2023-04-30T03:33:19;6.50;99.90
56308;DHT22;42217;50.422;7.210;2023-04-30T03:35:45;6.50;99.90
56308;DHT22;42217;50.422;7.210;2023-04-30T03:38:11;6.30;99.90
56308;DHT22;42217;50.422;7.210;2023-04-30T03:40:36;6.20;99.90
56308;DHT22;42217;50.422;7.210;2023-04-30T03:43:02;6.40;99.90
56308;DHT22;42217;50.422;7.210;2023-04-30T03:45:28;6.40;99.90
56308;DHT22;42217;50.422;7.210;2023-04-30T03:47:53;6.10;99.90
56308;DHT22;42217;50.422;7.210;2023-04-30T03:50:19;5.90;99.90
56308;DHT22;42217;50.422;7.210;2023-04-30T03:52:45;6.10;99.90
56308;DHT22;42217;50.422;7.210;2023-04-30T03:55:11;6.40;99.90
56308;DHT22;42217;50.422;7.210;2023-04-30T03:57:38;6.50;99.90
56308;DHT22;42217;50.422;7.210;2023-04-30T04:00:07;6.40;99.90
56308;DHT22;42217;50.422;7.210;2023-04-30T04:02:33;6.50;99.90
56308;DHT22;42217;50.422;7.210;2023-04-30T04:04:59;6.50;99.90
56308;DHT22;42217;50.422;7.210;2023-04-30T04:07:25;6.60;99.90
56308;DHT22;42217;50.422;7.210;2023-04-30T04:09:50;6.50;99.90
56308;DHT22;42217;50.422;7.210;2023-04-30T04:12:16;6.40;99.90
56308;DHT22;42217;50.422;7.210;2023-04-30T04:14:42;6.20;99.90
56308;DHT22;42217;50.422;7.210;2023-04-30T04:17:07;6.00;99.90
56308;DHT22;42217;50.422;7.210;2023-04-30T04:19:33;5.60;99.90
56308;DHT22;42217;50.422;7.210;2023-04-30T04:21:59;5.50;99.90
56308;DHT22;42217;50.422;7.210;2023-04-30T04:24:25;5.40;99.90
56308;DHT22;42217;50.422;7.210;2023-04-30T04:26:51;5.40;99.90
56308;DHT22;42217;50.422;7.210;2023-04-30T04:29:18;5.70;99.90
56308;DHT22;42217;50.422;7.210;2023-04-30T04:31:43;5.80;99.90
56308;DHT22;42217;50.422;7.210;2023-04-30T04:34:09;5.80;99.90
56308;DHT22;42217;50.422;7.210;2023-04-30T04:36:35;5.80;99.90
56308;DHT22;42217;50.422;7.210;2023-04-30T04:39:02;5.80;99.90
56308;DHT22;42217;50.422;7.210;2023-04-30T04:41:31;5.90;99.90
56308;DHT22;42217;50.422;7.210;2023-04-30T04:43:58;5.90;99.90
56308;DHT22;42217;50.422;7.210;2023-04-30T04:46:24;6.10;99.90
56308;DHT22;42217;50.422;7.210;2023-04-30T04:48:51;6.20;99.90
56308;DHT22;42217;50.422;7.210;2023-04-30T04:51:17;6.20;99.90
56308;DHT22;42217;50.422;7.210;2023-04-30T04:53:43;6.20;99.90
56308;DHT22;42217;50.422;7.210;2023-04-30T04:56:09;6.30;99.90
56308;DHT22;42217;50.422;7.210;2023-04-30T04:58:35;6.50;99.90
56308;DHT22;42217;50.422;7.210;2023-04-30T05:01:01;6.50;99.90
56308;DHT22;42217;50.422;7.210;2023-04-30T05:03:27;6.30;99.90
56308;DHT22;42217;50.422;7.210;2023-04-30T05:05:53;6.30;99.90
56308;DHT22;42217;50.422;7.210;2023-04-30T05:08:19;6.40;99.90
56308;DHT22;42217;50.422;7.210;2023-04-30T05:10:45;6.30;99.90
56308;DHT22;42217;50.422;7.210;2023-04-30T05:13:10;6.20;99.90
56308;DHT22;42217;50.422;7.210;2023-04-30T05:15:36;6.20;99.90
56308;DHT22;42217;50.422;7.210;2023-04-30T05:18:02;6.20;99.90
56308;DHT22;42217;50.422;7.210;2023-04-30T05:20:28;6.30;99.90
56308;DHT22;42217;50.422;7.210;2023-04-30T05:22:54;6.30;99.90
56308;DHT22;42217;50.422;7.210;2023-04-30T05:25:19;6.40;99.90
56308;DHT22;42217;50.422;7.210;2023-04-30T05:27:45;6.50;99.90
56308;DHT22;42217;50.422;7.210;2023-04-30T05:30:11;6.60;99.90
56308;DHT22;42217;50.422;7.210;2023-04-30T05:32:37;6.70;99.90
56308;DHT22;42217;50.422;7.210;2023-04-30T05:35:03;6.80;99.90
56308;DHT22;42217;50.422;7.210;2023-04-30T05:37:28;7.00;99.90
56308;DHT22;42217;50.422;7.210;2023-04-30T05:39:54;7.20;99.90
56308;DHT22;42217;50.422;7.210;2023-04-30T05:42:20;7.30;99.90
56308;DHT22;42217;50.422;7.210;2023-04-30T05:44:47;7.40;99.90
56308;DHT22;42217;50.422;7.210;2023-04-30T05:47:12;7.60;99.90
56308;DHT22;42217;50.422;7.210;2023-04-30T05:49:38;7.80;99.90
56308;DHT22;42217;50.422;7.210;2023-04-30T05:52:04;8.00;99.90
56308;DHT22;42217;50.422;7.210;2023-04-30T05:54:30;8.10;99.90
56308;DHT22;42217;50.422;7.210;2023-04-30T05:56:55;8.20;99.90
56308;DHT22;42217;50.422;7.210;2023-04-30T05:59:21;8.40;99.90
56308;DHT22;42217;50.422;7.210;2023-04-30T06:01:47;8.50;99.90
56308;DHT22;42217;50.422;7.210;2023-04-30T06:04:13;8.60;99.90
56308;DHT22;42217;50.422;7.210;2023-04-30T06:06:38;8.70;99.90
56308;DHT22;42217;50.422;7.210;2023-04-30T06:09:04;8.80;99.90
56308;DHT22;42217;50.422;7.210;2023-04-30T06:11:30;9.00;99.90
56308;DHT22;42217;50.422;7.210;2023-04-30T06:13:57;9.10;99.90
56308;DHT22;42217;50.422;7.210;2023-04-30T06:16:23;9.30;99.90
56308;DHT22;42217;50.422;7.210;2023-04-30T06:18:48;9.40;99.90
56308;DHT22;42217;50.422;7.210;2023-04-30T06:21:14;9.60;99.90
56308;DHT22;42217;50.422;7.210;2023-04-30T06:23:40;9.70;99.90
56308;DHT22;42217;50.422;7.210;2023-04-30T06:26:06;9.90;99.90
56308;DHT22;42217;50.422;7.210;2023-04-30T06:28:31;9.80;99.90
56308;DHT22;42217;50.422;7.210;2023-04-30T06:30:57;9.90;99.90
56308;DHT22;42217;50.422;7.210;2023-04-30T06:33:23;10.10;99.90
56308;DHT22;42217;50.422;7.210;2023-04-30T06:35:49;10.00;99.90
56308;DHT22;42217;50.422;7.210;2023-04-30T06:38:20;10.20;99.90
56308;DHT22;42217;50.422;7.210;2023-04-30T06:40:45;10.30;99.90
56308;DHT22;42217;50.422;7.210;2023-04-30T06:43:11;10.40;99.90
56308;DHT22;42217;50.422;7.210;2023-04-30T06:45:38;10.50;99.90
56308;DHT22;42217;50.422;7.210;2023-04-30T06:48:03;10.60;99.90
56308;DHT22;42217;50.422;7.210;2023-04-30T06:50:30;10.70;99.90
56308;DHT22;42217;50.422;7.210;2023-04-30T06:52:55;10.90;99.90
56308;DHT22;42217;50.422;7.210;2023-04-30T06:55:21;10.90;99.90
56308;DHT22;42217;50.422;7.210;2023-04-30T06:57:47;10.90;99.90
56308;DHT22;42217;50.422;7.210;2023-04-30T07:00:12;10.90;99.90
56308;DHT22;42217;50.422;7.210;2023-04-30T07:02:41;10.90;99.90
56308;DHT22;42217;50.422;7.210;2023-04-30T07:05:08;11.00;99.90
56308;DHT22;42217;50.422;7.210;2023-04-30T07:07:35;11.20;99.90
56308;DHT22;42217;50.422;7.210;2023-04-30T07:10:01;11.30;99.90
56308;DHT22;42217;50.422;7.210;2023-04-30T07:12:26;11.30;99.90
56308;DHT22;42217;50.422;7.210;2023-04-30T07:14:52;11.30;99.90
56308;DHT22;42217;50.422;7.210;2023-04-30T07:17:18;11.30;99.90
56308;DHT22;42217;50.422;7.210;2023-04-30T07:19:43;11.30;99.90
56308;DHT22;42217;50.422;7.210;2023-04-30T07:22:09;11.50;99.90
56308;DHT22;42217;50.422;7.210;2023-04-30T07:24:35;11.60;99.90
56308;DHT22;42217;50.422;7.210;2023-04-30T07:27:01;11.70;99.90
56308;DHT22;42217;50.422;7.210;2023-04-30T07:29:28;11.80;99.90
56308;DHT22;42217;50.422;7.210;2023-04-30T07:31:54;11.70;99.90
56308;DHT22;42217;50.422;7.210;2023-04-30T07:34:21;11.70;99.90
56308;DHT22;42217;50.422;7.210;2023-04-30T07:36:49;11.80;99.90
56308;DHT22;42217;50.422;7.210;2023-04-30T07:39:15;12.00;99.90
56308;DHT22;42217;50.422;7.210;2023-04-30T07:41:42;12.20;99.90
56308;DHT22;42217;50.422;7.210;2023-04-30T07:44:08;12.40;99.90
56308;DHT22;42217;50.422;7.210;2023-04-30T07:46:33;12.40;99.90
56308;DHT22;42217;50.422;7.210;2023-04-30T07:49:00;12.40;99.90
56308;DHT22;42217;50.422;7.210;2023-04-30T07:51:26;12.50;99.90
56308;DHT22;42217;50.422;7.210;2023-04-30T07:53:53;12.40;99.90
56308;DHT22;42217;50.422;7.210;2023-04-30T07:56:19;12.30;99.90
56308;DHT22;42217;50.422;7.210;2023-04-30T07:58:44;12.30;99.90
56308;DHT22;42217;50.422;7.210;2023-04-30T08:01:10;12.30;99.90
56308;DHT22;42217;50.422;7.210;2023-04-30T08:03:36;12.30;99.90
56308;DHT22;42217;50.422;7.210;2023-04-30T08:06:01;12.30;99.90
56308;DHT22;42217;50.422;7.210;2023-04-30T08:08:27;12.40;99.90
56308;DHT22;42217;50.422;7.210;2023-04-30T08:10:53;12.50;99.90
56308;DHT22;42217;50.422;7.210;2023-04-30T08:13:19;12.60;99.90
56308;DHT22;42217;50.422;7.210;2023-04-30T08:15:45;12.70;99.90
56308;DHT22;42217;50.422;7.210;2023-04-30T08:18:11;12.60;98.40
56308;DHT22;42217;50.422;7.210;2023-04-30T08:20:36;12.70;97.50
56308;DHT22;42217;50.422;7.210;2023-04-30T08:23:03;12.80;95.00
56308;DHT22;42217;50.422;7.210;2023-04-30T08:25:28;12.80;95.70
56308;DHT22;42217;50.422;7.210;2023-04-30T08:27:56;12.90;99.90
56308;DHT22;42217;50.422;7.210;2023-04-30T08:30:21;13.00;96.80
56308;DHT22;42217;50.422;7.210;2023-04-30T08:32:48;13.20;97.50
56308;DHT22;42217;50.422;7.210;2023-04-30T08:35:13;13.30;89.40
56308;DHT22;42217;50.422;7.210;2023-04-30T08:37:41;13.40;89.80
56308;DHT22;42217;50.422;7.210;2023-04-30T08:40:07;13.50;70.90
56308;DHT22;42217;50.422;7.210;2023-04-30T08:42:36;13.40;83.90
56308;DHT22;42217;50.422;7.210;2023-04-30T08:45:03;13.40;66.50
56308;DHT22;42217;50.422;7.210;2023-04-30T08:47:29;13.50;68.50
56308;DHT22;42217;50.422;7.210;2023-04-30T08:49:55;13.80;76.20
56308;DHT22;42217;50.422;7.210;2023-04-30T08:52:21;13.90;54.20
56308;DHT22;42217;50.422;7.210;2023-04-30T08:54:49;14.20;58.80
56308;DHT22;42217;50.422;7.210;2023-04-30T08:57:17;14.20;79.20
56308;DHT22;42217;50.422;7.210;2023-04-30T08:59:46;14.10;30.30
56308;DHT22;42217;50.422;7.210;2023-04-30T09:02:12;14.30;29.70
56308;DHT22;42217;50.422;7.210;2023-04-30T09:04:37;14.30;1.00
56308;DHT22;42217;50.422;7.210;2023-04-30T09:07:03;14.40;7.20
56308;DHT22;42217;50.422;7.210;2023-04-30T09:09:35;14.50;1.00
56308;DHT22;42217;50.422;7.210;2023-04-30T09:12:15;14.20;1.00
56308;DHT22;42217;50.422;7.210;2023-04-30T09:14:57;14.20;11.80
56308;DHT22;42217;50.422;7.210;2023-04-30T09:17:24;14.50;1.00
56308;DHT22;42217;50.422;7.210;2023-04-30T09:19:51;14.80;1.00
56308;DHT22;42217;50.422;7.210;2023-04-30T09:22:21;15.10;1.00
56308;DHT22;42217;50.422;7.210;2023-04-30T09:24:49;15.20;1.00
56308;DHT22;42217;50.422;7.210;2023-04-30T09:27:17;15.30;1.00
56308;DHT22;42217;50.422;7.210;2023-04-30T09:29:43;15.40;1.00
56308;DHT22;42217;50.422;7.210;2023-04-30T09:32:09;15.50;1.00
56308;DHT22;42217;50.422;7.210;2023-04-30T09:34:36;15.50;99.90
56308;DHT22;42217;50.422;7.210;2023-04-30T09:37:02;15.60;99.90
56308;DHT22;42217;50.422;7.210;2023-04-30T09:39:29;15.60;99.90
56308;DHT22;42217;50.422;7.210;2023-04-30T09:42:10;15.80;99.90
56308;DHT22;42217;50.422;7.210;2023-04-30T09:44:38;15.90;99.90
56308;DHT22;42217;50.422;7.210;2023-04-30T09:47:18;15.80;1.00
56308;DHT22;42217;50.422;7.210;2023-04-30T09:49:49;15.90;99.90
56308;DHT22;42217;50.422;7.210;2023-04-30T09:52:19;15.90;99.90
56308;DHT22;42217;50.422;7.210;2023-04-30T09:54:45;15.90;99.90
56308;DHT22;42217;50.422;7.210;2023-04-30T09:57:14;16.30;1.00
56308;DHT22;42217;50.422;7.210;2023-04-30T09:59:44;16.70;99.90
56308;DHT22;42217;50.422;7.210;2023-04-30T10:02:13;16.90;99.90
56308;DHT22;42217;50.422;7.210;2023-04-30T10:04:42;16.60;1.00
56308;DHT22;42217;50.422;7.210;2023-04-30T10:07:15;16.90;85.10
56308;DHT22;42217;50.422;7.210;2023-04-30T10:09:52;17.30;55.80
56308;DHT22;42217;50.422;7.210;2023-04-30T10:12:27;17.70;99.90
56308;DHT22;42217;50.422;7.210;2023-04-30T10:14:58;17.90;1.00
56308;DHT22;42217;50.422;7.210;2023-04-30T10:17:29;17.80;10.60
56308;DHT22;42217;50.422;7.210;2023-04-30T10:20:02;17.80;99.90
56308;DHT22;42217;50.422;7.210;2023-04-30T10:22:33;17.90;99.90
56308;DHT22;42217;50.422;7.210;2023-04-30T10:25:00;18.00;99.90
56308;DHT22;42217;50.422;7.210;2023-04-30T10:27:27;17.80;99.90
56308;DHT22;42217;50.422;7.210;2023-04-30T10:29:54;17.70;1.00
56308;DHT22;42217;50.422;7.210;2023-04-30T10:32:20;17.70;1.00
56308;DHT22;42217;50.422;7.210;2023-04-30T10:35:05;17.60;1.00
56308;DHT22;42217;50.422;7.210;2023-04-30T10:37:42;17.40;99.90
56308;DHT22;42217;50.422;7.210;2023-04-30T10:40:10;17.30;99.90
56308;DHT22;42217;50.422;7.210;2023-04-30T10:42:36;17.50;99.90
56308;DHT22;42217;50.422;7.210;2023-04-30T10:45:03;17.80;99.90
56308;DHT22;42217;50.422;7.210;2023-04-30T10:47:29;18.00;99.90
56308;DHT22;42217;50.422;7.210;2023-04-30T10:50:02;18.10;99.90
56308;DHT22;42217;50.422;7.210;2023-04-30T10:52:28;18.20;99.90
56308;DHT22;42217;50.422;7.210;2023-04-30T10:54:54;18.20;1.00
56308;DHT22;42217;50.422;7.210;2023-04-30T10:57:21;18.00;1.00
56308;DHT22;42217;50.422;7.210;2023-04-30T11:02:15;17.80;1.00
56308;DHT22;42217;50.422;7.210;2023-04-30T11:07:32;17.70;1.00
56308;DHT22;42217;50.422;7.210;2023-04-30T11:09:59;18.00;99.90
56308;DHT22;42217;50.422;7.210;2023-04-30T11:12:26;18.00;99.90
56308;DHT22;42217;50.422;7.210;2023-04-30T11:15:12;18.10;99.90
56308;DHT22;42217;50.422;7.210;2023-04-30T11:17:38;18.20;99.90
56308;DHT22;42217;50.422;7.210;2023-04-30T11:20:05;18.30;99.90
56308;DHT22;42217;50.422;7.210;2023-04-30T11:22:30;18.20;99.90
56308;DHT22;42217;50.422;7.210;2023-04-30T11:27:33;18.10;1.00
56308;DHT22;42217;50.422;7.210;2023-04-30T11:30:00;18.20;99.90
56308;DHT22;42217;50.422;7.210;2023-04-30T11:32:32;18.40;99.90
56308;DHT22;42217;50.422;7.210;2023-04-30T11:35:02;18.50;99.90
56308;DHT22;42217;50.422;7.210;2023-04-30T11:37:38;18.50;15.40
56308;DHT22;42217;50.422;7.210;2023-04-30T11:40:12;18.60;99.90
56308;DHT22;42217;50.422;7.210;2023-04-30T11:42:40;19.00;90.80
56308;DHT22;42217;50.422;7.210;2023-04-30T11:45:10;19.00;1.00
56308;DHT22;42217;50.422;7.210;2023-04-30T11:47:47;19.10;1.00
56308;DHT22;42217;50.422;7.210;2023-04-30T11:50:14;19.20;99.90
56308;DHT22;42217;50.422;7.210;2023-04-30T11:52:41;19.50;1.00
56308;DHT22;42217;50.422;7.210;2023-04-30T11:55:16;19.50;1.00
56308;DHT22;42217;50.422;7.210;2023-04-30T11:57:43;19.60;1.00
56308;DHT22;42217;50.422;7.210;2023-04-30T12:00:16;19.50;1.00
56308;DHT22;42217;50.422;7.210;2023-04-30T12:02:46;19.40;99.90
56308;DHT22;42217;50.422;7.210;2023-04-30T12:07:46;19.10;99.90
56308;DHT22;42217;50.422;7.210;2023-04-30T12:10:13;19.20;1.00
56308;DHT22;42217;50.422;7.210;2023-04-30T12:12:41;19.20;99.90
56308;DHT22;42217;50.422;7.210;2023-04-30T12:15:11;19.30;99.90
56308;DHT22;42217;50.422;7.210;2023-04-30T12:17:37;19.30;99.90
56308;DHT22;42217;50.422;7.210;2023-04-30T12:20:03;19.60;99.90
56308;DHT22;42217;50.422;7.210;2023-04-30T12:22:29;19.60;99.90
56308;DHT22;42217;50.422;7.210;2023-04-30T12:24:57;19.70;99.90
56308;DHT22;42217;50.422;7.210;2023-04-30T12:27:23;19.70;10.10
56308;DHT22;42217;50.422;7.210;2023-04-30T12:29:49;19.80;99.90
56308;DHT22;42217;50.422;7.210;2023-04-30T12:32:20;19.90;21.60
56308;DHT22;42217;50.422;7.210;2023-04-30T12:34:46;20.20;99.90
56308;DHT22;42217;50.422;7.210;2023-04-30T12:37:14;20.30;63.20
56308;DHT22;42217;50.422;7.210;2023-04-30T12:39:41;20.30;1.00
56308;DHT22;42217;50.422;7.210;2023-04-30T12:42:06;20.20;99.90
56308;DHT22;42217;50.422;7.210;2023-04-30T12:44:41;20.10;99.90
56308;DHT22;42217;50.422;7.210;2023-04-30T12:47:08;20.20;1.00
56308;DHT22;42217;50.422;7.210;2023-04-30T12:49:34;20.60;99.90
56308;DHT22;42217;50.422;7.210;2023-04-30T12:52:05;21.00;1.00
56308;DHT22;42217;50.422;7.210;2023-04-30T12:54:33;21.10;99.90
56308;DHT22;42217;50.422;7.210;2023-04-30T12:57:18;21.10;99.90
56308;DHT22;42217;50.422;7.210;2023-04-30T12:59:57;20.90;99.90
56308;DHT22;42217;50.422;7.210;2023-04-30T13:02:25;21.10;99.90
56308;DHT22;42217;50.422;7.210;2023-04-30T13:04:51;21.40;99.90
56308;DHT22;42217;50.422;7.210;2023-04-30T13:07:17;21.60;99.90
56308;DHT22;42217;50.422;7.210;2023-04-30T13:09:43;21.90;99.90
56308;DHT22;42217;50.422;7.210;2023-04-30T13:12:09;21.70;1.00
56308;DHT22;42217;50.422;7.210;2023-04-30T13:14:34;22.10;1.00
56308;DHT22;42217;50.422;7.210;2023-04-30T13:17:01;23.00;1.00
56308;DHT22;42217;50.422;7.210;2023-04-30T13:19:30;24.10;99.90
56308;DHT22;42217;50.422;7.210;2023-04-30T13:21:56;25.30;99.90
56308;DHT22;42217;50.422;7.210;2023-04-30T13:24:22;26.10;99.90
56308;DHT22;42217;50.422;7.210;2023-04-30T13:26:47;26.50;1.00
56308;DHT22;42217;50.422;7.210;2023-04-30T13:29:13;27.20;1.00
56308;DHT22;42217;50.422;7.210;2023-04-30T13:31:39;27.30;1.00
56308;DHT22;42217;50.422;7.210;2023-04-30T13:34:09;27.20;1.00
56308;DHT22;42217;50.422;7.210;2023-04-30T13:36:35;26.90;1.00
56308;DHT22;42217;50.422;7.210;2023-04-30T13:39:01;28.00;1.00
56308;DHT22;42217;50.422;7.210;2023-04-30T13:41:27;28.90;1.00
56308;DHT22;42217;50.422;7.210;2023-04-30T13:43:52;29.30;99.90
56308;DHT22;42217;50.422;7.210;2023-04-30T13:46:18;30.40;1.00
56308;DHT22;42217;50.422;7.210;2023-04-30T13:48:44;30.20;99.90
56308;DHT22;42217;50.422;7.210;2023-04-30T13:51:13;30.00;99.90
56308;DHT22;42217;50.422;7.210;2023-04-30T13:53:38;30.00;99.90
56308;DHT22;42217;50.422;7.210;2023-04-30T13:56:05;29.50;99.90
56308;DHT22;42217;50.422;7.210;2023-04-30T13:58:31;29.10;99.90
56308;DHT22;42217;50.422;7.210;2023-04-30T14:00:57;29.20;99.90
56308;DHT22;42217;50.422;7.210;2023-04-30T14:03:23;29.90;99.90
56308;DHT22;42217;50.422;7.210;2023-04-30T14:05:49;30.50;99.90
56308;DHT22;42217;50.422;7.210;2023-04-30T14:08:15;30.80;99.90
56308;DHT22;42217;50.422;7.210;2023-04-30T14:10:41;31.40;99.90
56308;DHT22;42217;50.422;7.210;2023-04-30T14:13:06;32.00;99.90
56308;DHT22;42217;50.422;7.210;2023-04-30T14:15:32;31.30;99.90
56308;DHT22;42217;50.422;7.210;2023-04-30T14:17:58;30.30;99.90
56308;DHT22;42217;50.422;7.210;2023-04-30T14:20:26;29.90;99.90
56308;DHT22;42217;50.422;7.210;2023-04-30T14:22:52;28.70;99.90
56308;DHT22;42217;50.422;7.210;2023-04-30T14:25:18;28.20;99.90
56308;DHT22;42217;50.422;7.210;2023-04-30T14:27:43;27.80;99.90
56308;DHT22;42217;50.422;7.210;2023-04-30T14:30:10;28.20;99.90
56308;DHT22;42217;50.422;7.210;2023-04-30T14:32:35;28.40;99.90
56308;DHT22;42217;50.422;7.210;2023-04-30T14:35:02;28.10;99.90
56308;DHT22;42217;50.422;7.210;2023-04-30T14:37:28;28.00;99.90
56308;DHT22;42217;50.422;7.210;2023-04-30T14:39:54;28.00;99.90
56308;DHT22;42217;50.422;7.210;2023-04-30T14:42:20;28.60;99.90
56308;DHT22;42217;50.422;7.210;2023-04-30T14:44:45;28.50;99.90
56308;DHT22;42217;50.422;7.210;2023-04-30T14:47:11;28.80;99.90
56308;DHT22;42217;50.422;7.210;2023-04-30T14:49:37;28.50;99.90
56308;DHT22;42217;50.422;7.210;2023-04-30T14:52:03;28.80;99.90
56308;DHT22;42217;50.422;7.210;2023-04-30T14:54:28;28.90;99.90
56308;DHT22;42217;50.422;7.210;2023-04-30T14:56:54;29.40;99.90
56308;DHT22;42217;50.422;7.210;2023-04-30T14:59:20;29.40;99.90
56308;DHT22;42217;50.422;7.210;2023-04-30T15:01:46;29.60;99.90
56308;DHT22;42217;50.422;7.210;2023-04-30T15:04:11;29.70;99.90
56308;DHT22;42217;50.422;7.210;2023-04-30T15:06:37;30.00;99.90
56308;DHT22;42217;50.422;7.210;2023-04-30T15:09:03;30.70;99.90
56308;DHT22;42217;50.422;7.210;2023-04-30T15:11:29;31.10;99.90
56308;DHT22;42217;50.422;7.210;2023-04-30T15:13:54;30.50;99.90
56308;DHT22;42217;50.422;7.210;2023-04-30T15:16:20;29.60;99.90
56308;DHT22;42217;50.422;7.210;2023-04-30T15:18:46;29.10;99.90
56308;DHT22;42217;50.422;7.210;2023-04-30T15:21:13;28.80;99.90
56308;DHT22;42217;50.422;7.210;2023-04-30T15:23:39;29.00;99.90
56308;DHT22;42217;50.422;7.210;2023-04-30T15:26:05;28.90;99.90
56308;DHT22;42217;50.422;7.210;2023-04-30T15:28:31;29.10;99.90
56308;DHT22;42217;50.422;7.210;2023-04-30T15:30:59;29.20;99.90
56308;DHT22;42217;50.422;7.210;2023-04-30T15:33:26;30.10;99.90
56308;DHT22;42217;50.422;7.210;2023-04-30T15:35:54;30.30;99.90
56308;DHT22;42217;50.422;7.210;2023-04-30T15:38:20;31.10;99.90
56308;DHT22;42217;50.422;7.210;2023-04-30T15:40:46;31.50;99.90
56308;DHT22;42217;50.422;7.210;2023-04-30T15:43:12;31.50;99.90
56308;DHT22;42217;50.422;7.210;2023-04-30T15:45:39;32.30;99.90
56308;DHT22;42217;50.422;7.210;2023-04-30T15:48:05;31.80;99.90
56308;DHT22;42217;50.422;7.210;2023-04-30T15:50:31;30.80;99.90
56308;DHT22;42217;50.422;7.210;2023-04-30T15:52:57;30.80;99.90
56308;DHT22;42217;50.422;7.210;2023-04-30T15:55:23;31.10;99.90
56308;DHT22;42217;50.422;7.210;2023-04-30T15:57:49;31.30;99.90